sensor_id;sensor_type;location;lat;lon;timestamp;temperature;humidity
50067;DHT22;35952;52.524;13.340;2022-11-15T00:01:44;6.40;99.90
50067;DHT22;35952;52.524;13.340;2022-11-15T00:04:10;6.30;99.90
50067;DHT22;35952;52.524;13.340;2022-11-15T00:06:35;6.30;99.90
50067;DHT22;35952;52.524;13.340;2022-11-15T00:09:01;6.40;99.90
50067;DHT22;35952;52.524;13.340;2022-11-15T00:11:27;6.40;99.90
50067;DHT22;35952;52.524;13.340;2022-11-15T00:13:56;6.40;99.90
50067;DHT22;35952;52.524;13.340;2022-11-15T00:16:23;6.40;99.90
50067;DHT22;35952;52.524;13.340;2022-11-15T00:18:49;6.30;99.90
50067;DHT22;35952;52.524;13.340;2022-11-15T00:21:15;6.30;99.90
50067;DHT22;35952;52.524;13.340;2022-11-15T00:23:41;6.30;99.90
50067;DHT22;35952;52.524;13.340;2022-11-15T00:26:08;6.30;99.90
50067;DHT22;35952;52.524;13.340;2022-11-15T00:28:36;6.30;99.90
50067;DHT22;35952;52.524;13.340;2022-11-15T00:31:03;6.30;99.90
50067;DHT22;35952;52.524;13.340;2022-11-15T00:33:29;6.30;99.90
50067;DHT22;35952;52.524;13.340;2022-11-15T00:36:03;6.30;99.90
50067;DHT22;35952;52.524;13.340;2022-11-15T00:38:33;6.30;99.90
50067;DHT22;35952;52.524;13.340;2022-11-15T00:41:00;6.20;99.90
50067;DHT22;35952;52.524;13.340;2022-11-15T00:43:25;6.20;99.90
50067;DHT22;35952;52.524;13.340;2022-11-15T00:45:51;6.20;99.90
50067;DHT22;35952;52.524;13.340;2022-11-15T00:48:16;6.20;99.90
50067;DHT22;35952;52.524;13.340;2022-11-15T00:50:42;6.20;99.90
50067;DHT22;35952;52.524;13.340;2022-11-15T00:53:07;6.20;99.90
50067;DHT22;35952;52.524;13.340;2022-11-15T00:55:33;6.10;99.90
50067;DHT22;35952;52.524;13.340;2022-11-15T00:57:58;6.20;99.90
50067;DHT22;35952;52.524;13.340;2022-11-15T01:00:23;6.20;99.90
50067;DHT22;35952;52.524;13.340;2022-11-15T01:02:49;6.10;99.90
50067;DHT22;35952;52.524;13.340;2022-11-15T01:05:14;6.20;99.90
50067;DHT22;35952;52.524;13.340;2022-11-15T01:07:40;6.20;99.90
50067;DHT22;35952;52.524;13.340;2022-11-15T01:10:06;6.10;99.90
50067;DHT22;35952;52.524;13.340;2022-11-15T01:12:32;6.10;99.90
50067;DHT22;35952;52.524;13.340;2022-11-15T01:14:57;6.10;99.90
50067;DHT22;35952;52.524;13.340;2022-11-15T01:17:23;6.20;99.90
50067;DHT22;35952;52.524;13.340;2022-11-15T01:19:49;6.10;99.90
50067;DHT22;35952;52.524;13.340;2022-11-15T01:22:14;6.20;99.90
50067;DHT22;35952;52.524;13.340;2022-11-15T01:24:40;6.10;99.90
50067;DHT22;35952;52.524;13.340;2022-11-15T01:27:06;6.20;99.90
50067;DHT22;35952;52.524;13.340;2022-11-15T01:29:31;6.10;99.90
50067;DHT22;35952;52.524;13.340;2022-11-15T01:31:57;6.10;99.90
50067;DHT22;35952;52.524;13.340;2022-11-15T01:34:23;6.20;99.90
50067;DHT22;35952;52.524;13.340;2022-11-15T01:36:48;6.20;99.90
50067;DHT22;35952;52.524;13.340;2022-11-15T01:39:14;6.10;99.90
50067;DHT22;35952;52.524;13.340;2022-11-15T01:41:40;6.00;99.90
50067;DHT22;35952;52.524;13.340;2022-11-15T01:46:53;6.10;99.90
50067;DHT22;35952;52.524;13.340;2022-11-15T01:49:21;6.00;99.90
50067;DHT22;35952;52.524;13.340;2022-11-15T01:51:47;6.00;99.90
50067;DHT22;35952;52.524;13.340;2022-11-15T01:54:16;5.90;99.90
50067;DHT22;35952;52.524;13.340;2022-11-15T01:56:49;5.90;99.90
50067;DHT22;35952;52.524;13.340;2022-11-15T01:59:16;5.90;99.90
50067;DHT22;35952;52.524;13.340;2022-11-15T02:01:43;5.90;99.90
50067;DHT22;35952;52.524;13.340;2022-11-15T02:04:13;5.90;99.90
50067;DHT22;35952;52.524;13.340;2022-11-15T02:06:40;5.90;99.90
50067;DHT22;35952;52.524;13.340;2022-11-15T02:09:06;6.00;99.90
50067;DHT22;35952;52.524;13.340;2022-11-15T02:11:32;5.90;99.90
50067;DHT22;35952;52.524;13.340;2022-11-15T02:13:58;6.00;99.90
50067;DHT22;35952;52.524;13.340;2022-11-15T02:31:03;5.90;99.90
50067;DHT22;35952;52.524;13.340;2022-11-15T02:34:04;5.90;99.90
50067;DHT22;35952;52.524;13.340;2022-11-15T02:39:55;5.90;99.90
50067;DHT22;35952;52.524;13.340;2022-11-15T02:42:00;5.80;99.90
50067;DHT22;35952;52.524;13.340;2022-11-15T02:44:38;5.80;99.90
50067;DHT22;35952;52.524;13.340;2022-11-15T02:47:07;5.90;99.90
50067;DHT22;35952;52.524;13.340;2022-11-15T02:49:52;5.90;99.90
50067;DHT22;35952;52.524;13.340;2022-11-15T02:52:21;5.80;99.90
50067;DHT22;35952;52.524;13.340;2022-11-15T02:54:57;5.80;99.90
50067;DHT22;35952;52.524;13.340;2022-11-15T03:00:35;5.80;99.90
50067;DHT22;35952;52.524;13.340;2022-11-15T03:03:55;5.80;99.90
50067;DHT22;35952;52.524;13.340;2022-11-15T03:06:22;5.90;99.90
50067;DHT22;35952;52.524;13.340;2022-11-15T03:09:09;5.80;99.90
50067;DHT22;35952;52.524;13.340;2022-11-15T03:11:41;5.80;99.90
50067;DHT22;35952;52.524;13.340;2022-11-15T03:14:36;5.80;99.90
50067;DHT22;35952;52.524;13.340;2022-11-15T03:17:23;5.80;99.90
50067;DHT22;35952;52.524;13.340;2022-11-15T03:19:54;5.80;99.90
50067;DHT22;35952;52.524;13.340;2022-11-15T03:22:22;5.90;99.90
50067;DHT22;35952;52.524;13.340;2022-11-15T03:24:53;5.90;99.90
50067;DHT22;35952;52.524;13.340;2022-11-15T03:27:23;5.90;99.90
50067;DHT22;35952;52.524;13.340;2022-11-15T03:29:54;5.90;99.90
50067;DHT22;35952;52.524;13.340;2022-11-15T03:32:24;5.90;99.90
50067;DHT22;35952;52.524;13.340;2022-11-15T03:35:12;5.80;99.90
50067;DHT22;35952;52.524;13.340;2022-11-15T03:37:57;5.90;99.90
50067;DHT22;35952;52.524;13.340;2022-11-15T03:40:30;5.90;99.90
50067;DHT22;35952;52.524;13.340;2022-11-15T03:43:15;5.90;99.90
50067;DHT22;35952;52.524;13.340;2022-11-15T03:45:51;5.90;99.90
50067;DHT22;35952;52.524;13.340;2022-11-15T03:48:34;5.90;99.90
50067;DHT22;35952;52.524;13.340;2022-11-15T03:51:03;5.80;99.90
50067;DHT22;35952;52.524;13.340;2022-11-15T03:53:29;5.80;99.90
50067;DHT22;35952;52.524;13.340;2022-11-15T03:55:56;5.80;99.90
50067;DHT22;35952;52.524;13.340;2022-11-15T03:58:21;5.80;99.90
50067;DHT22;35952;52.524;13.340;2022-11-15T04:00:47;5.80;99.90
50067;DHT22;35952;52.524;13.340;2022-11-15T04:03:12;5.80;99.90
50067;DHT22;35952;52.524;13.340;2022-11-15T04:05:38;5.80;99.90
50067;DHT22;35952;52.524;13.340;2022-11-15T04:08:03;5.80;99.90
50067;DHT22;35952;52.524;13.340;2022-11-15T04:10:29;5.90;99.90
50067;DHT22;35952;52.524;13.340;2022-11-15T04:12:54;5.90;99.90
50067;DHT22;35952;52.524;13.340;2022-11-15T04:15:24;5.90;99.90
50067;DHT22;35952;52.524;13.340;2022-11-15T04:17:54;5.90;99.90
50067;DHT22;35952;52.524;13.340;2022-11-15T04:20:23;5.90;99.90
50067;DHT22;35952;52.524;13.340;2022-11-15T04:23:19;5.80;99.90
50067;DHT22;35952;52.524;13.340;2022-11-15T04:26:12;5.90;99.90
50067;DHT22;35952;52.524;13.340;2022-11-15T04:28:39;5.80;99.90
50067;DHT22;35952;52.524;13.340;2022-11-15T04:31:25;5.80;99.90
50067;DHT22;35952;52.524;13.340;2022-11-15T04:33:51;5.70;99.90
50067;DHT22;35952;52.524;13.340;2022-11-15T04:36:16;5.70;99.90
50067;DHT22;35952;52.524;13.340;2022-11-15T04:39:00;5.70;99.90
50067;DHT22;35952;52.524;13.340;2022-11-15T04:41:26;5.70;99.90
50067;DHT22;35952;52.524;13.340;2022-11-15T04:43:51;5.70;99.90
50067;DHT22;35952;52.524;13.340;2022-11-15T04:46:17;5.70;99.90
50067;DHT22;35952;52.524;13.340;2022-11-15T04:48:43;5.70;99.90
50067;DHT22;35952;52.524;13.340;2022-11-15T04:51:08;5.70;99.90
50067;DHT22;35952;52.524;13.340;2022-11-15T04:53:34;5.80;99.90
50067;DHT22;35952;52.524;13.340;2022-11-15T04:55:59;5.90;99.90
50067;DHT22;35952;52.524;13.340;2022-11-15T04:58:25;5.90;99.90
50067;DHT22;35952;52.524;13.340;2022-11-15T05:00:50;5.80;99.90
50067;DHT22;35952;52.524;13.340;2022-11-15T05:03:16;5.80;99.90
50067;DHT22;35952;52.524;13.340;2022-11-15T05:06:00;5.80;99.90
50067;DHT22;35952;52.524;13.340;2022-11-15T05:08:25;5.80;99.90
50067;DHT22;35952;52.524;13.340;2022-11-15T05:10:51;5.80;99.90
50067;DHT22;35952;52.524;13.340;2022-11-15T05:13:17;5.80;99.90
50067;DHT22;35952;52.524;13.340;2022-11-15T05:15:42;5.80;99.90
50067;DHT22;35952;52.524;13.340;2022-11-15T05:18:08;5.80;99.90
50067;DHT22;35952;52.524;13.340;2022-11-15T05:20:33;5.80;99.90
50067;DHT22;35952;52.524;13.340;2022-11-15T05:22:59;5.70;99.90
50067;DHT22;35952;52.524;13.340;2022-11-15T05:25:25;5.70;99.90
50067;DHT22;35952;52.524;13.340;2022-11-15T05:27:51;5.80;99.90
50067;DHT22;35952;52.524;13.340;2022-11-15T05:30:16;5.70;99.90
50067;DHT22;35952;52.524;13.340;2022-11-15T05:32:43;5.80;99.90
50067;DHT22;35952;52.524;13.340;2022-11-15T05:35:13;5.70;99.90
50067;DHT22;35952;52.524;13.340;2022-11-15T05:37:40;5.70;99.90
50067;DHT22;35952;52.524;13.340;2022-11-15T05:40:06;5.70;99.90
50067;DHT22;35952;52.524;13.340;2022-11-15T05:42:32;5.70;99.90
50067;DHT22;35952;52.524;13.340;2022-11-15T05:44:59;5.70;99.90
50067;DHT22;35952;52.524;13.340;2022-11-15T05:47:27;5.60;99.90
50067;DHT22;35952;52.524;13.340;2022-11-15T05:49:53;5.60;99.90
50067;DHT22;35952;52.524;13.340;2022-11-15T05:52:22;5.70;99.90
50067;DHT22;35952;52.524;13.340;2022-11-15T05:54:49;5.70;99.90
50067;DHT22;35952;52.524;13.340;2022-11-15T05:57:15;5.60;99.90
50067;DHT22;35952;52.524;13.340;2022-11-15T05:59:42;5.60;99.90
50067;DHT22;35952;52.524;13.340;2022-11-15T06:02:09;5.60;99.90
50067;DHT22;35952;52.524;13.340;2022-11-15T06:04:34;5.60;99.90
50067;DHT22;35952;52.524;13.340;2022-11-15T06:07:00;5.60;99.90
50067;DHT22;35952;52.524;13.340;2022-11-15T06:09:25;5.60;99.90
50067;DHT22;35952;52.524;13.340;2022-11-15T06:11:51;5.70;99.90
50067;DHT22;35952;52.524;13.340;2022-11-15T06:14:16;5.70;99.90
50067;DHT22;35952;52.524;13.340;2022-11-15T06:16:43;5.70;99.90
50067;DHT22;35952;52.524;13.340;2022-11-15T06:19:08;5.80;99.90
50067;DHT22;35952;52.524;13.340;2022-11-15T06:21:34;5.80;99.90
50067;DHT22;35952;52.524;13.340;2022-11-15T06:23:59;5.80;99.90
50067;DHT22;35952;52.524;13.340;2022-11-15T06:26:25;5.90;99.90
50067;DHT22;35952;52.524;13.340;2022-11-15T06:28:50;5.80;99.90
50067;DHT22;35952;52.524;13.340;2022-11-15T06:31:16;5.70;99.90
50067;DHT22;35952;52.524;13.340;2022-11-15T06:33:41;5.80;99.90
50067;DHT22;35952;52.524;13.340;2022-11-15T06:36:10;5.80;99.90
50067;DHT22;35952;52.524;13.340;2022-11-15T06:38:36;5.70;99.90
50067;DHT22;35952;52.524;13.340;2022-11-15T06:41:07;5.80;99.90
50067;DHT22;35952;52.524;13.340;2022-11-15T06:43:33;5.80;99.90
50067;DHT22;35952;52.524;13.340;2022-11-15T06:45:59;5.70;99.90
50067;DHT22;35952;52.524;13.340;2022-11-15T06:48:27;5.70;99.90
50067;DHT22;35952;52.524;13.340;2022-11-15T06:50:57;5.80;99.90
50067;DHT22;35952;52.524;13.340;2022-11-15T06:53:23;5.80;99.90
50067;DHT22;35952;52.524;13.340;2022-11-15T06:55:49;5.90;99.90
50067;DHT22;35952;52.524;13.340;2022-11-15T06:58:15;5.90;99.90
50067;DHT22;35952;52.524;13.340;2022-11-15T07:00:41;5.90;99.90
50067;DHT22;35952;52.524;13.340;2022-11-15T07:03:06;6.00;99.90
50067;DHT22;35952;52.524;13.340;2022-11-15T07:05:33;6.00;99.90
50067;DHT22;35952;52.524;13.340;2022-11-15T07:07:59;6.10;99.90
50067;DHT22;35952;52.524;13.340;2022-11-15T07:10:25;6.10;99.90
50067;DHT22;35952;52.524;13.340;2022-11-15T07:12:52;6.10;99.90
50067;DHT22;35952;52.524;13.340;2022-11-15T07:15:19;6.00;99.90
50067;DHT22;35952;52.524;13.340;2022-11-15T07:17:44;6.20;99.90
50067;DHT22;35952;52.524;13.340;2022-11-15T07:20:10;6.20;99.90
50067;DHT22;35952;52.524;13.340;2022-11-15T07:22:36;6.20;99.90
50067;DHT22;35952;52.524;13.340;2022-11-15T07:25:02;6.10;99.90
50067;DHT22;35952;52.524;13.340;2022-11-15T07:27:27;6.10;99.90
50067;DHT22;35952;52.524;13.340;2022-11-15T07:29:53;6.10;99.90
50067;DHT22;35952;52.524;13.340;2022-11-15T07:32:18;6.20;99.90
50067;DHT22;35952;52.524;13.340;2022-11-15T07:34:44;6.20;99.90
50067;DHT22;35952;52.524;13.340;2022-11-15T07:37:11;6.30;99.90
50067;DHT22;35952;52.524;13.340;2022-11-15T07:39:37;6.30;99.90
50067;DHT22;35952;52.524;13.340;2022-11-15T07:42:02;6.40;99.90
50067;DHT22;35952;52.524;13.340;2022-11-15T07:44:47;6.40;99.90
50067;DHT22;35952;52.524;13.340;2022-11-15T07:47:12;6.50;99.90
50067;DHT22;35952;52.524;13.340;2022-11-15T07:49:38;6.50;99.90
50067;DHT22;35952;52.524;13.340;2022-11-15T07:52:04;6.50;99.90
50067;DHT22;35952;52.524;13.340;2022-11-15T07:54:29;6.60;99.90
50067;DHT22;35952;52.524;13.340;2022-11-15T07:56:55;6.60;99.90
50067;DHT22;35952;52.524;13.340;2022-11-15T07:59:20;6.60;99.90
50067;DHT22;35952;52.524;13.340;2022-11-15T08:01:46;6.70;99.90
50067;DHT22;35952;52.524;13.340;2022-11-15T08:04:11;6.80;99.90
50067;DHT22;35952;52.524;13.340;2022-11-15T08:06:37;6.90;99.90
50067;DHT22;35952;52.524;13.340;2022-11-15T08:09:03;7.00;99.90
50067;DHT22;35952;52.524;13.340;2022-11-15T08:11:29;7.00;99.90
50067;DHT22;35952;52.524;13.340;2022-11-15T08:13:54;7.10;99.90
50067;DHT22;35952;52.524;13.340;2022-11-15T08:16:20;7.30;99.90
50067;DHT22;35952;52.524;13.340;2022-11-15T08:18:46;7.20;99.90
50067;DHT22;35952;52.524;13.340;2022-11-15T08:21:14;7.20;99.90
50067;DHT22;35952;52.524;13.340;2022-11-15T08:23:41;7.30;99.90
50067;DHT22;35952;52.524;13.340;2022-11-15T08:26:08;7.30;99.90
50067;DHT22;35952;52.524;13.340;2022-11-15T08:28:33;7.40;99.90
50067;DHT22;35952;52.524;13.340;2022-11-15T08:30:59;7.40;99.90
50067;DHT22;35952;52.524;13.340;2022-11-15T08:33:24;7.50;99.90
50067;DHT22;35952;52.524;13.340;2022-11-15T08:35:50;7.60;99.90
50067;DHT22;35952;52.524;13.340;2022-11-15T08:38:16;7.70;99.90
50067;DHT22;35952;52.524;13.340;2022-11-15T08:40:41;7.80;99.90
50067;DHT22;35952;52.524;13.340;2022-11-15T08:43:07;7.80;99.90
50067;DHT22;35952;52.524;13.340;2022-11-15T08:45:34;7.90;99.90
50067;DHT22;35952;52.524;13.340;2022-11-15T08:48:02;7.90;99.90
50067;DHT22;35952;52.524;13.340;2022-11-15T08:50:27;8.10;99.90
50067;DHT22;35952;52.524;13.340;2022-11-15T08:52:53;8.10;99.90
50067;DHT22;35952;52.524;13.340;2022-11-15T08:55:18;8.20;99.90
50067;DHT22;35952;52.524;13.340;2022-11-15T08:57:44;8.20;99.90
50067;DHT22;35952;52.524;13.340;2022-11-15T09:00:10;8.30;99.90
50067;DHT22;35952;52.524;13.340;2022-11-15T09:02:38;8.40;99.90
50067;DHT22;35952;52.524;13.340;2022-11-15T09:05:05;8.40;99.90
50067;DHT22;35952;52.524;13.340;2022-11-15T09:07:30;8.50;99.90
50067;DHT22;35952;52.524;13.340;2022-11-15T09:09:57;8.60;99.90
50067;DHT22;35952;52.524;13.340;2022-11-15T09:12:23;8.70;99.90
50067;DHT22;35952;52.524;13.340;2022-11-15T09:14:49;8.80;99.90
50067;DHT22;35952;52.524;13.340;2022-11-15T09:17:14;8.90;99.90
50067;DHT22;35952;52.524;13.340;2022-11-15T09:19:39;8.90;99.90
50067;DHT22;35952;52.524;13.340;2022-11-15T09:22:06;8.90;99.90
50067;DHT22;35952;52.524;13.340;2022-11-15T09:24:32;9.00;99.90
50067;DHT22;35952;52.524;13.340;2022-11-15T09:26:57;9.00;99.90
50067;DHT22;35952;52.524;13.340;2022-11-15T09:29:22;9.00;99.90
50067;DHT22;35952;52.524;13.340;2022-11-15T09:31:48;9.20;99.90
50067;DHT22;35952;52.524;13.340;2022-11-15T09:34:14;9.20;99.90
50067;DHT22;35952;52.524;13.340;2022-11-15T09:36:39;9.20;99.90
50067;DHT22;35952;52.524;13.340;2022-11-15T09:39:05;9.30;99.90
50067;DHT22;35952;52.524;13.340;2022-11-15T09:41:37;9.40;99.90
50067;DHT22;35952;52.524;13.340;2022-11-15T09:44:18;9.60;99.90
50067;DHT22;35952;52.524;13.340;2022-11-15T09:49:52;9.60;99.90
50067;DHT22;35952;52.524;13.340;2022-11-15T09:52:19;9.70;99.90
50067;DHT22;35952;52.524;13.340;2022-11-15T09:54:49;9.70;99.90
50067;DHT22;35952;52.524;13.340;2022-11-15T09:57:31;9.70;99.90
50067;DHT22;35952;52.524;13.340;2022-11-15T10:00:13;9.80;99.90
50067;DHT22;35952;52.524;13.340;2022-11-15T10:05:43;9.80;99.90
50067;DHT22;35952;52.524;13.340;2022-11-15T10:08:37;9.90;99.90
50067;DHT22;35952;52.524;13.340;2022-11-15T10:11:08;10.00;99.90
50067;DHT22;35952;52.524;13.340;2022-11-15T10:13:37;10.10;99.90
50067;DHT22;35952;52.524;13.340;2022-11-15T10:16:23;10.10;99.90
50067;DHT22;35952;52.524;13.340;2022-11-15T10:19:16;10.10;99.90
50067;DHT22;35952;52.524;13.340;2022-11-15T10:22:08;10.30;99.90
50067;DHT22;35952;52.524;13.340;2022-11-15T10:24:41;10.30;99.90
50067;DHT22;35952;52.524;13.340;2022-11-15T10:27:16;10.40;99.90
50067;DHT22;35952;52.524;13.340;2022-11-15T10:29:46;10.40;99.90
50067;DHT22;35952;52.524;13.340;2022-11-15T10:32:15;10.50;99.90
50067;DHT22;35952;52.524;13.340;2022-11-15T10:34:41;10.60;99.90
50067;DHT22;35952;52.524;13.340;2022-11-15T10:37:06;10.60;99.90
50067;DHT22;35952;52.524;13.340;2022-11-15T10:39:32;10.60;99.90
50067;DHT22;35952;52.524;13.340;2022-11-15T10:42:30;10.60;99.90
50067;DHT22;35952;52.524;13.340;2022-11-15T10:44:55;10.60;99.90
50067;DHT22;35952;52.524;13.340;2022-11-15T10:47:27;10.70;99.90
50067;DHT22;35952;52.524;13.340;2022-11-15T10:49:59;10.80;99.90
50067;DHT22;35952;52.524;13.340;2022-11-15T10:52:25;10.80;99.90
50067;DHT22;35952;52.524;13.340;2022-11-15T10:55:12;10.90;99.90
50067;DHT22;35952;52.524;13.340;2022-11-15T10:57:52;10.90;99.90
50067;DHT22;35952;52.524;13.340;2022-11-15T11:05:30;11.10;99.90
50067;DHT22;35952;52.524;13.340;2022-11-15T11:08:01;11.20;99.90
50067;DHT22;35952;52.524;13.340;2022-11-15T11:10:28;11.30;99.90
50067;DHT22;35952;52.524;13.340;2022-11-15T11:12:53;11.50;99.90
50067;DHT22;35952;52.524;13.340;2022-11-15T11:15:19;11.40;99.90
50067;DHT22;35952;52.524;13.340;2022-11-15T11:17:57;11.50;99.90
50067;DHT22;35952;52.524;13.340;2022-11-15T11:20:29;11.50;99.90
50067;DHT22;35952;52.524;13.340;2022-11-15T11:26:18;11.70;99.90
50067;DHT22;35952;52.524;13.340;2022-11-15T11:29:20;11.70;99.90
50067;DHT22;35952;52.524;13.340;2022-11-15T11:37:36;11.70;99.90
50067;DHT22;35952;52.524;13.340;2022-11-15T11:45:50;11.80;99.90
50067;DHT22;35952;52.524;13.340;2022-11-15T11:51:38;11.90;99.90
50067;DHT22;35952;52.524;13.340;2022-11-15T11:54:25;11.90;99.90
50067;DHT22;35952;52.524;13.340;2022-11-15T11:56:57;11.90;99.90
50067;DHT22;35952;52.524;13.340;2022-11-15T11:59:41;12.10;99.90
50067;DHT22;35952;52.524;13.340;2022-11-15T12:04:50;12.30;99.90
50067;DHT22;35952;52.524;13.340;2022-11-15T12:07:21;12.30;99.90
50067;DHT22;35952;52.524;13.340;2022-11-15T12:10:05;12.20;99.90
50067;DHT22;35952;52.524;13.340;2022-11-15T12:15:31;12.20;99.90
50067;DHT22;35952;52.524;13.340;2022-11-15T12:17:59;12.30;99.90
50067;DHT22;35952;52.524;13.340;2022-11-15T12:20:35;12.20;99.90
50067;DHT22;35952;52.524;13.340;2022-11-15T12:25:52;12.20;99.90
50067;DHT22;35952;52.524;13.340;2022-11-15T12:28:34;12.30;99.90
50067;DHT22;35952;52.524;13.340;2022-11-15T12:31:06;12.30;99.90
50067;DHT22;35952;52.524;13.340;2022-11-15T12:33:40;12.30;99.90
50067;DHT22;35952;52.524;13.340;2022-11-15T12:41:27;12.50;99.90
50067;DHT22;35952;52.524;13.340;2022-11-15T12:43:53;12.50;99.90
50067;DHT22;35952;52.524;13.340;2022-11-15T12:48:56;12.40;99.90
50067;DHT22;35952;52.524;13.340;2022-11-15T13:02:40;12.50;99.90
50067;DHT22;35952;52.524;13.340;2022-11-15T13:22:50;12.50;99.90
50067;DHT22;35952;52.524;13.340;2022-11-15T13:33:30;12.40;99.90
50067;DHT22;35952;52.524;13.340;2022-11-15T13:36:02;12.50;99.90
50067;DHT22;35952;52.524;13.340;2022-11-15T13:38:31;12.40;99.90
50067;DHT22;35952;52.524;13.340;2022-11-15T13:40:58;12.40;99.90
50067;DHT22;35952;52.524;13.340;2022-11-15T13:43:34;12.30;99.90
50067;DHT22;35952;52.524;13.340;2022-11-15T13:46:10;12.30;99.90
50067;DHT22;35952;52.524;13.340;2022-11-15T13:48:36;12.20;99.90
50067;DHT22;35952;52.524;13.340;2022-11-15T13:51:06;12.30;99.90
50067;DHT22;35952;52.524;13.340;2022-11-15T13:53:36;12.30;99.90
50067;DHT22;35952;52.524;13.340;2022-11-15T13:56:04;12.30;99.90
50067;DHT22;35952;52.524;13.340;2022-11-15T13:58:30;12.20;99.90
50067;DHT22;35952;52.524;13.340;2022-11-15T14:01:01;12.20;99.90
50067;DHT22;35952;52.524;13.340;2022-11-15T14:03:32;12.20;99.90
50067;DHT22;35952;52.524;13.340;2022-11-15T14:06:11;12.10;99.90
50067;DHT22;35952;52.524;13.340;2022-11-15T14:08:38;12.10;99.90
50067;DHT22;35952;52.524;13.340;2022-11-15T14:11:19;12.10;99.90
50067;DHT22;35952;52.524;13.340;2022-11-15T14:16:34;11.90;99.90
50067;DHT22;35952;52.524;13.340;2022-11-15T14:19:01;12.00;99.90
50067;DHT22;35952;52.524;13.340;2022-11-15T14:21:28;12.20;99.90
50067;DHT22;35952;52.524;13.340;2022-11-15T14:24:17;12.10;99.90
50067;DHT22;35952;52.524;13.340;2022-11-15T14:26:43;12.10;99.90
50067;DHT22;35952;52.524;13.340;2022-11-15T14:29:28;12.20;99.90
50067;DHT22;35952;52.524;13.340;2022-11-15T14:32:05;12.20;99.90
50067;DHT22;35952;52.524;13.340;2022-11-15T14:34:36;12.20;99.90
50067;DHT22;35952;52.524;13.340;2022-11-15T14:37:02;12.10;99.90
50067;DHT22;35952;52.524;13.340;2022-11-15T14:39:27;11.90;99.90
50067;DHT22;35952;52.524;13.340;2022-11-15T14:41:53;11.90;99.90
50067;DHT22;35952;52.524;13.340;2022-11-15T14:44:18;11.80;99.90
50067;DHT22;35952;52.524;13.340;2022-11-15T14:46:46;11.70;99.90
50067;DHT22;35952;52.524;13.340;2022-11-15T14:49:11;11.80;99.90
50067;DHT22;35952;52.524;13.340;2022-11-15T14:51:38;12.00;99.90
50067;DHT22;35952;52.524;13.340;2022-11-15T14:54:03;12.00;99.90
50067;DHT22;35952;52.524;13.340;2022-11-15T14:56:29;11.90;99.90
50067;DHT22;35952;52.524;13.340;2022-11-15T14:58:54;11.80;99.90
50067;DHT22;35952;52.524;13.340;2022-11-15T15:01:24;11.70;99.90
50067;DHT22;35952;52.524;13.340;2022-11-15T15:03:50;11.70;99.90
50067;DHT22;35952;52.524;13.340;2022-11-15T15:06:22;11.80;99.90
50067;DHT22;35952;52.524;13.340;2022-11-15T15:08:48;11.80;99.90
50067;DHT22;35952;52.524;13.340;2022-11-15T15:11:31;11.90;99.90
50067;DHT22;35952;52.524;13.340;2022-11-15T15:13:57;12.00;99.90
50067;DHT22;35952;52.524;13.340;2022-11-15T15:16:26;11.90;99.90
50067;DHT22;35952;52.524;13.340;2022-11-15T15:18:51;11.80;99.90
50067;DHT22;35952;52.524;13.340;2022-11-15T15:21:20;11.70;99.90
50067;DHT22;35952;52.524;13.340;2022-11-15T15:23:47;11.60;99.90
50067;DHT22;35952;52.524;13.340;2022-11-15T15:26:12;11.60;99.90
50067;DHT22;35952;52.524;13.340;2022-11-15T15:28:38;11.50;99.90
50067;DHT22;35952;52.524;13.340;2022-11-15T15:31:04;11.40;99.90
50067;DHT22;35952;52.524;13.340;2022-11-15T15:33:32;11.30;99.90
50067;DHT22;35952;52.524;13.340;2022-11-15T15:35:57;11.20;99.90
50067;DHT22;35952;52.524;13.340;2022-11-15T15:38:23;11.20;99.90
50067;DHT22;35952;52.524;13.340;2022-11-15T15:40:49;11.20;99.90
50067;DHT22;35952;52.524;13.340;2022-11-15T15:43:14;11.20;99.90
50067;DHT22;35952;52.524;13.340;2022-11-15T15:45:41;11.10;99.90
50067;DHT22;35952;52.524;13.340;2022-11-15T15:48:15;11.00;99.90
50067;DHT22;35952;52.524;13.340;2022-11-15T15:50:42;10.90;99.90
50067;DHT22;35952;52.524;13.340;2022-11-15T15:53:12;10.80;99.90
50067;DHT22;35952;52.524;13.340;2022-11-15T15:55:38;10.80;99.90
50067;DHT22;35952;52.524;13.340;2022-11-15T15:58:04;10.70;99.90
50067;DHT22;35952;52.524;13.340;2022-11-15T16:00:30;10.80;99.90
50067;DHT22;35952;52.524;13.340;2022-11-15T16:02:58;10.70;99.90
50067;DHT22;35952;52.524;13.340;2022-11-15T16:05:24;10.60;99.90
50067;DHT22;35952;52.524;13.340;2022-11-15T16:07:50;10.60;99.90
50067;DHT22;35952;52.524;13.340;2022-11-15T16:10:27;10.60;99.90
50067;DHT22;35952;52.524;13.340;2022-11-15T16:12:53;10.60;99.90
50067;DHT22;35952;52.524;13.340;2022-11-15T16:15:20;10.60;99.90
50067;DHT22;35952;52.524;13.340;2022-11-15T16:17:54;10.80;99.90
50067;DHT22;35952;52.524;13.340;2022-11-15T16:20:38;10.70;99.90
50067;DHT22;35952;52.524;13.340;2022-11-15T16:23:06;10.70;99.90
50067;DHT22;35952;52.524;13.340;2022-11-15T16:25:55;10.70;99.90
50067;DHT22;35952;52.524;13.340;2022-11-15T16:28:32;10.80;99.90
50067;DHT22;35952;52.524;13.340;2022-11-15T16:31:05;10.80;99.90
50067;DHT22;35952;52.524;13.340;2022-11-15T16:33:33;10.80;99.90
50067;DHT22;35952;52.524;13.340;2022-11-15T16:35:58;10.90;99.90
50067;DHT22;35952;52.524;13.340;2022-11-15T16:38:24;10.80;99.90
50067;DHT22;35952;52.524;13.340;2022-11-15T16:40:50;10.90;99.90
50067;DHT22;35952;52.524;13.340;2022-11-15T16:43:15;10.90;99.90
50067;DHT22;35952;52.524;13.340;2022-11-15T16:45:41;10.80;99.90
50067;DHT22;35952;52.524;13.340;2022-11-15T16:48:24;10.90;99.90
50067;DHT22;35952;52.524;13.340;2022-11-15T16:50:54;10.90;99.90
50067;DHT22;35952;52.524;13.340;2022-11-15T16:53:20;10.80;99.90
50067;DHT22;35952;52.524;13.340;2022-11-15T16:55:46;10.70;99.90
50067;DHT22;35952;52.524;13.340;2022-11-15T16:58:11;10.70;99.90
50067;DHT22;35952;52.524;13.340;2022-11-15T17:00:36;10.70;99.90
50067;DHT22;35952;52.524;13.340;2022-11-15T17:03:02;10.60;99.90
50067;DHT22;35952;52.524;13.340;2022-11-15T17:05:28;10.60;99.90
50067;DHT22;35952;52.524;13.340;2022-11-15T17:07:54;10.50;99.90
50067;DHT22;35952;52.524;13.340;2022-11-15T17:10:21;10.60;99.90
50067;DHT22;35952;52.524;13.340;2022-11-15T17:12:46;10.70;99.90
50067;DHT22;35952;52.524;13.340;2022-11-15T17:15:12;10.70;99.90
50067;DHT22;35952;52.524;13.340;2022-11-15T17:17:39;10.60;99.90
50067;DHT22;35952;52.524;13.340;2022-11-15T17:20:05;10.50;99.90
50067;DHT22;35952;52.524;13.340;2022-11-15T17:22:37;10.60;99.90
50067;DHT22;35952;52.524;13.340;2022-11-15T17:25:03;10.40;99.90
50067;DHT22;35952;52.524;13.340;2022-11-15T17:27:29;10.40;99.90